Time;durP1;ratioP1;P1;durP2;ratioP2;P2;SDS_P1;SDS_P2;PMS_P1;PMS_P2;Temp;Humidity;BMP_temperature;BMP_pressure;BME280_temperature;BME280_humidity;BME280_pressure;Samples;Min_cycle;Max_cycle;Signal;HPM_P1;HPM_P2
2023/10/22 00:01:28;;;;;;;78.50;43.20;;;;;;;10.86;100.00;99540.96;214146;1288;140897;-89
2023/10/22 00:06:29;;;;;;;75.00;44.60;;;;;;;10.86;100.00;99546.31;214501;1285;140353;-89
2023/10/22 00:11:29;;;;;;;85.20;46.50;;;;;;;10.86;100.00;99544.42;214221;1286;140303;-90
2023/10/22 00:16:30;;;;;;;82.00;42.40;;;;;;;10.90;100.00;99550.23;214942;1288;139523;-89
2023/10/22 00:21:30;;;;;;;88.40;40.70;;;;;;;10.93;100.00;99558.23;214054;1285;139884;-90
2023/10/22 00:26:31;;;;;;;80.40;38.70;;;;;;;10.94;100.00;99559.10;214486;1291;139067;-90
2023/10/22 00:31:31;;;;;;;70.80;37.10;;;;;;;10.97;100.00;99564.27;214044;1284;140629;-90
2023/10/22 00:36:32;;;;;;;76.00;39.10;;;;;;;11.01;100.00;99566.45;215184;1289;139168;-89
2023/10/22 00:41:32;;;;;;;77.70;40.90;;;;;;;11.06;100.00;99560.61;214828;1288;140354;-89
2023/10/22 00:46:33;;;;;;;59.40;33.50;;;;;;;11.10;100.00;99553.04;215320;1285;138635;-89
2023/10/22 00:51:34;;;;;;;62.30;34.80;;;;;;;11.13;100.00;99552.48;214684;1286;140122;-89
2023/10/22 00:56:35;;;;;;;59.90;33.20;;;;;;;11.20;100.00;99557.23;215296;1289;139566;-89
2023/10/22 01:01:36;;;;;;;61.30;34.90;;;;;;;11.25;100.00;99559.73;214763;1285;141286;-88
2023/10/22 01:06:37;;;;;;;64.30;36.20;;;;;;;11.33;100.00;99564.09;214992;1288;139829;-89
2023/10/22 01:11:57;;;;;;;61.70;34.90;;;;;;;11.40;100.00;99552.79;214323;1285;140516;-90
2023/10/22 01:16:58;;;;;;;65.20;36.80;;;;;;;11.44;100.00;99548.73;214610;1284;139104;-91
2023/10/22 01:21:59;;;;;;;65.10;37.80;;;;;;;11.49;100.00;99549.50;213846;1290;140302;-90
2023/10/22 01:26:59;;;;;;;60.70;36.60;;;;;;;11.51;100.00;99545.87;214506;1288;139702;-91
2023/10/22 01:32:00;;;;;;;70.40;39.00;;;;;;;11.54;100.00;99540.58;213935;1289;140536;-90
2023/10/22 01:37:00;;;;;;;67.70;39.20;;;;;;;11.55;100.00;99544.17;214712;1285;139644;-91
2023/10/22 01:42:00;;;;;;;62.50;36.80;;;;;;;11.55;100.00;99542.61;214288;1286;139821;-90
2023/10/22 01:47:01;;;;;;;63.30;35.80;;;;;;;11.56;100.00;99550.48;214599;1285;139529;-90
2023/10/22 01:52:02;;;;;;;54.40;32.40;;;;;;;11.57;100.00;99554.88;213945;1289;141104;-90
2023/10/22 01:57:03;;;;;;;73.40;43.10;;;;;;;11.56;100.00;99547.56;214685;1284;139109;-89
2023/10/22 02:02:03;;;;;;;61.30;34.00;;;;;;;11.58;100.00;99555.20;214009;1283;141105;-90
2023/10/22 02:07:05;;;;;;;56.80;32.10;;;;;;;11.66;100.00;99558.23;214553;1288;139668;-90
2023/10/22 02:12:08;;;;;;;54.30;29.20;;;;;;;11.71;100.00;99555.59;214254;1286;140297;-90
2023/10/22 02:17:08;;;;;;;51.10;28.80;;;;;;;11.81;100.00;99556.94;214529;1288;140139;-89
2023/10/22 02:22:11;;;;;;;54.20;28.30;;;;;;;11.97;100.00;99559.88;214258;1288;140476;-88
2023/10/22 02:27:12;;;;;;;55.80;28.20;;;;;;;12.09;100.00;99555.04;214671;1288;138996;-88
2023/10/22 02:32:13;;;;;;;61.10;33.10;;;;;;;12.25;100.00;99545.60;213983;1285;140286;-89
2023/10/22 02:37:13;;;;;;;59.00;32.30;;;;;;;12.46;100.00;99537.96;214631;1288;139594;-88
2023/10/22 02:42:14;;;;;;;61.60;33.10;;;;;;;12.64;100.00;99537.45;214178;1288;140789;-88
2023/10/22 02:47:14;;;;;;;68.60;36.20;;;;;;;12.77;100.00;99539.11;214806;1288;140672;-87
2023/10/22 02:52:15;;;;;;;67.90;36.70;;;;;;;12.88;100.00;99540.95;214044;1288;140241;-87
2023/10/22 02:57:16;;;;;;;56.80;32.40;;;;;;;12.96;100.00;99544.17;214402;1285;139689;-87
2023/10/22 03:02:16;;;;;;;54.80;33.00;;;;;;;13.04;100.00;99542.20;213850;1285;140552;-87
2023/10/22 03:07:17;;;;;;;59.30;35.20;;;;;;;13.13;100.00;99538.84;214505;1285;139083;-88
2023/10/22 03:12:18;;;;;;;70.00;40.50;;;;;;;13.16;100.00;99531.14;213868;1288;140635;-89
2023/10/22 03:17:19;;;;;;;61.10;38.50;;;;;;;13.21;100.00;99537.46;214603;1285;98104;-88
2023/10/22 03:22:20;;;;;;;62.90;36.20;;;;;;;13.24;100.00;99540.73;214042;1285;140253;-89
2023/10/22 03:27:21;;;;;;;54.80;33.70;;;;;;;13.25;100.00;99542.46;214604;1285;139073;-89
2023/10/22 03:32:22;;;;;;;54.70;32.60;;;;;;;13.24;100.00;99546.42;213805;1286;140503;-88
2023/10/22 03:37:22;;;;;;;49.90;31.40;;;;;;;13.24;100.00;99549.66;214608;1285;139744;-88
2023/10/22 03:42:23;;;;;;;48.00;31.10;;;;;;;13.25;100.00;99547.44;213949;1288;141032;-89
2023/10/22 03:47:23;;;;;;;46.60;29.60;;;;;;;13.23;100.00;99545.09;214740;1285;98623;-90
2023/10/22 03:52:24;;;;;;;39.20;25.90;;;;;;;13.22;100.00;99549.20;214131;1284;140628;-89
2023/10/22 03:57:25;;;;;;;46.00;30.10;;;;;;;13.22;100.00;99554.02;214730;1288;139953;-89
2023/10/22 04:02:25;;;;;;;45.10;28.40;;;;;;;13.22;100.00;99558.21;213946;1285;140888;-88
2023/10/22 04:07:26;;;;;;;46.10;27.50;;;;;;;13.22;100.00;99558.21;214743;1288;138981;-89
2023/10/22 04:12:30;;;;;;;46.50;29.80;;;;;;;13.20;100.00;99553.57;214282;1284;140635;-88
2023/10/22 04:17:31;;;;;;;42.10;27.30;;;;;;;13.17;100.00;99540.98;214858;1288;99383;-90
2023/10/22 04:22:32;;;;;;;44.30;27.50;;;;;;;13.16;100.00;99540.21;214138;1288;139905;-89
2023/10/22 04:27:33;;;;;;;39.70;26.40;;;;;;;13.13;100.00;99533.45;214535;1285;139436;-90
2023/10/22 04:32:34;;;;;;;45.80;31.40;;;;;;;13.10;100.00;99531.94;214215;1285;140085;-89
2023/10/22 04:37:35;;;;;;;56.10;36.50;;;;;;;13.06;100.00;99537.73;215225;1288;139877;-90
2023/10/22 04:42:35;;;;;;;56.80;34.90;;;;;;;12.98;100.00;99538.24;214482;1284;140159;-90
2023/10/22 04:47:36;;;;;;;57.80;35.20;;;;;;;12.88;100.00;99530.94;215066;1283;97953;-90
2023/10/22 04:52:37;;;;;;;55.80;36.70;;;;;;;12.79;100.00;99529.48;214610;1285;140209;-90
2023/10/22 04:57:37;;;;;;;57.50;36.10;;;;;;;12.72;100.00;99524.42;215291;1285;141274;-91
2023/10/22 05:02:38;;;;;;;55.70;35.30;;;;;;;12.63;100.00;99521.92;215035;1283;140407;-89
2023/10/22 05:07:38;;;;;;;57.80;36.50;;;;;;;12.58;100.00;99529.48;215060;1284;139145;-90
2023/10/22 05:12:39;;;;;;;55.60;35.40;;;;;;;12.55;100.00;99536.75;214311;1288;140306;-90
2023/10/22 05:17:40;;;;;;;54.00;34.20;;;;;;;12.50;100.00;99537.14;214796;1285;98018;-90
2023/10/22 05:22:44;;;;;;;57.40;37.50;;;;;;;12.46;100.00;99541.66;214327;1285;140396;-90
2023/10/22 05:27:44;;;;;;;58.10;37.80;;;;;;;12.41;100.00;99539.60;214590;1285;139080;-90
2023/10/22 05:32:45;;;;;;;60.60;39.30;;;;;;;12.36;100.00;99541.15;214093;1284;139909;-90
2023/10/22 05:37:46;;;;;;;60.50;38.80;;;;;;;12.29;100.00;99546.58;214664;1285;139691;-93
2023/10/22 05:42:47;;;;;;;62.90;39.30;;;;;;;12.24;100.00;99554.67;214289;1285;139861;-88
2023/10/22 05:47:47;;;;;;;64.20;36.60;;;;;;;12.21;100.00;99565.48;214811;1283;98085;-89
2023/10/22 05:52:50;;;;;;;57.80;36.60;;;;;;;12.19;100.00;99578.04;214423;1288;139821;-89
2023/10/22 05:57:50;;;;;;;51.30;34.50;;;;;;;12.18;100.00;99578.21;214720;1285;138948;-90
2023/10/22 06:02:51;;;;;;;50.80;32.90;;;;;;;12.19;100.00;99578.90;213995;1288;140161;-89
2023/10/22 06:07:52;;;;;;;48.80;31.80;;;;;;;12.20;100.00;99581.35;214618;1285;140439;-90
2023/10/22 06:12:53;;;;;;;55.10;32.70;;;;;;;12.22;100.00;99582.97;214209;1285;140708;-90
2023/10/22 06:17:54;;;;;;;57.80;33.10;;;;;;;12.23;100.00;99579.43;214993;1285;97925;-89
2023/10/22 06:22:55;;;;;;;54.10;33.50;;;;;;;12.22;100.00;99582.98;214209;1285;140247;-89
2023/10/22 06:27:56;;;;;;;54.20;32.80;;;;;;;12.24;100.00;99581.54;214542;1288;139662;-90
2023/10/22 06:32:58;;;;;;;48.40;29.80;;;;;;;12.27;100.00;99586.34;214107;1288;139960;-90
2023/10/22 06:37:58;;;;;;;46.50;28.10;;;;;;;12.30;100.00;99588.27;215011;1285;210644;-89
2023/10/22 06:42:59;;;;;;;48.40;29.20;;;;;;;12.35;100.00;99586.02;214370;1288;140297;-90
2023/10/22 06:48:00;;;;;;;64.20;34.60;;;;;;;12.38;100.00;99579.98;214843;1285;97944;-89
2023/10/22 06:53:00;;;;;;;57.00;32.20;;;;;;;12.41;100.00;99578.95;213953;1287;266215;-89
2023/10/22 06:58:01;;;;;;;65.00;35.20;;;;;;;12.43;100.00;99580.58;215009;1285;140119;-89
2023/10/22 07:03:01;;;;;;;60.80;32.10;;;;;;;12.46;100.00;99583.07;214279;1286;140398;-92
2023/10/22 07:08:03;;;;;;;51.80;29.80;;;;;;;12.48;100.00;99586.27;214599;1288;140043;-88
2023/10/22 07:13:04;;;;;;;51.60;30.10;;;;;;;12.51;100.00;99588.06;214526;1285;142115;-90
2023/10/22 07:18:04;;;;;;;50.70;30.00;;;;;;;12.54;100.00;99583.30;214877;1284;111519;-89
2023/10/22 07:23:08;;;;;;;47.20;28.20;;;;;;;12.57;100.00;99588.80;214187;1286;139882;-93
2023/10/22 07:28:09;;;;;;;51.10;27.90;;;;;;;12.59;100.00;99589.70;214944;1288;139076;-88
2023/10/22 07:33:09;;;;;;;46.00;27.10;;;;;;;12.61;100.00;99592.77;214504;1285;140355;-87
2023/10/22 07:38:10;;;;;;;34.40;24.10;;;;;;;12.62;100.00;99594.57;214796;1283;139722;-89
2023/10/22 07:43:10;;;;;;;34.10;23.30;;;;;;;12.63;100.00;99595.19;214706;1285;140357;-88
2023/10/22 07:48:11;;;;;;;34.20;23.10;;;;;;;12.64;100.00;99593.30;215201;1283;97950;-87
2023/10/22 07:53:11;;;;;;;38.90;24.50;;;;;;;12.64;100.00;99593.29;214537;1283;140461;-87
2023/10/22 07:58:12;;;;;;;54.30;29.70;;;;;;;12.63;100.00;99596.45;215197;1285;139052;-86
2023/10/22 08:03:13;;;;;;;37.20;23.50;;;;;;;12.63;100.00;99598.82;214281;1284;140308;-86
2023/10/22 08:08:13;;;;;;;36.40;23.70;;;;;;;12.61;100.00;99600.02;214925;1285;139822;-88
2023/10/22 08:13:14;;;;;;;35.50;22.40;;;;;;;12.60;100.00;99603.81;214643;1288;140172;-86
2023/10/22 08:18:14;;;;;;;34.10;21.60;;;;;;;12.61;100.00;99605.87;214999;1283;98475;-87
2023/10/22 08:23:15;;;;;;;35.10;24.40;;;;;;;12.62;100.00;99605.21;214329;1285;139625;-87
2023/10/22 08:28:15;;;;;;;30.90;20.80;;;;;;;12.63;100.00;99604.58;214956;1288;235306;-88
2023/10/22 08:33:17;;;;;;;29.90;16.60;;;;;;;12.65;100.00;99606.45;214416;1285;140342;-87
2023/10/22 08:38:17;;;;;;;25.80;17.70;;;;;;;12.69;100.00;99608.86;214823;1285;139285;-89
2023/10/22 08:43:18;;;;;;;31.30;20.30;;;;;;;12.71;100.00;99611.59;214456;1288;139830;-91
2023/10/22 08:48:19;;;;;;;33.60;23.30;;;;;;;12.74;100.00;99613.38;215648;1285;139449;-90
2023/10/22 08:53:21;;;;;;;40.80;28.50;;;;;;;12.78;100.00;99616.56;215121;1285;140382;-90
2023/10/22 08:58:22;;;;;;;46.80;30.60;;;;;;;12.83;100.00;99619.73;215372;1285;139896;-92
2023/10/22 09:03:25;;;;;;;42.00;28.80;;;;;;;12.85;100.00;99618.77;214581;1285;141960;-92
2023/10/22 09:08:46;;;;;;;48.60;30.10;;;;;;;12.86;100.00;99621.53;215220;1285;139249;-92
2023/10/22 09:13:47;;;;;;;43.50;29.90;;;;;;;12.87;100.00;99623.25;214707;1288;140311;-93
2023/10/22 09:18:48;;;;;;;46.90;32.10;;;;;;;12.88;100.00;99630.34;215425;1284;139680;-93
2023/10/22 09:24:07;;;;;;;42.40;29.10;;;;;;;12.87;100.00;99631.38;215076;1285;140244;-92
2023/10/22 09:29:08;;;;;;;45.50;29.40;;;;;;;12.87;100.00;99633.43;214647;1286;140574;-88
2023/10/22 09:34:28;;;;;;;46.00;28.90;;;;;;;12.86;100.00;99635.64;215048;1288;139618;-91
2023/10/22 09:39:37;;;;;;;43.70;28.40;;;;;;;12.85;100.00;99632.98;214434;1285;140223;-91
2023/10/22 09:44:40;;;;;;;44.60;28.50;;;;;;;12.84;100.00;99638.59;215055;1285;139020;-89
2023/10/22 09:49:48;;;;;;;42.80;27.30;;;;;;;12.85;100.00;99641.96;214765;1289;140631;-90
2023/10/22 09:54:50;;;;;;;40.60;28.10;;;;;;;12.88;100.00;99646.76;215283;1288;139075;-90
2023/10/22 09:59:51;;;;;;;39.40;27.00;;;;;;;12.90;100.00;99646.65;214668;1289;140886;-89
2023/10/22 10:04:54;;;;;;;40.00;26.30;;;;;;;12.91;100.00;99650.03;215264;1285;139442;-89
2023/10/22 10:09:55;;;;;;;36.60;24.50;;;;;;;12.94;100.00;99646.06;214050;1284;140259;-89
2023/10/22 10:14:56;;;;;;;37.70;24.40;;;;;;;12.96;100.00;99647.87;214700;1285;139555;-88
2023/10/22 10:20:26;;;;;;;30.20;21.10;;;;;;;12.98;100.00;99649.52;214279;1288;140269;-88
2023/10/22 10:25:34;;;;;;;37.80;23.70;;;;;;;13.00;100.00;99648.07;214828;1288;139185;-88
2023/10/22 10:30:36;;;;;;;35.80;24.90;;;;;;;13.03;100.00;99646.77;214265;1285;140689;-89
2023/10/22 10:35:47;;;;;;;39.20;25.60;;;;;;;13.03;100.00;99649.06;214893;1285;97877;-88
2023/10/22 10:40:53;;;;;;;37.90;25.80;;;;;;;13.05;100.00;99648.17;214463;1285;140359;-88
2023/10/22 10:46:23;;;;;;;38.40;26.80;;;;;;;13.08;100.00;99649.16;215012;1287;139828;-88
2023/10/22 10:51:24;;;;;;;45.00;29.00;;;;;;;13.11;100.00;99650.54;214854;1285;140404;-89
2023/10/22 10:56:46;;;;;;;41.50;27.80;;;;;;;13.14;100.00;99651.86;215432;1285;139541;-89
2023/10/22 11:02:06;;;;;;;43.30;30.00;;;;;;;13.17;100.00;99654.42;214993;1284;140363;-87
2023/10/22 11:07:07;;;;;;;38.10;27.40;;;;;;;13.18;100.00;99653.46;215950;1288;139512;-86
2023/10/22 11:12:08;;;;;;;45.20;29.30;;;;;;;13.19;100.00;99653.92;215707;1285;140514;-86
2023/10/22 11:17:08;;;;;;;45.80;32.30;;;;;;;13.18;100.00;99666.34;215918;1285;139660;-85
2023/10/22 11:22:12;;;;;;;46.10;31.00;;;;;;;13.15;100.00;99671.27;214759;1289;140579;-87
2023/10/22 11:27:15;;;;;;;42.00;29.70;;;;;;;13.14;100.00;99675.85;214945;1288;139483;-85
2023/10/22 11:32:17;;;;;;;43.40;30.90;;;;;;;13.06;100.00;99681.39;214241;1285;140629;-86
2023/10/22 11:37:19;;;;;;;51.20;34.20;;;;;;;12.99;100.00;99679.33;215339;1285;139530;-85
2023/10/22 11:42:20;;;;;;;53.60;36.60;;;;;;;12.93;100.00;99678.25;214842;1288;140222;-86
2023/10/22 11:47:27;;;;;;;55.30;39.00;;;;;;;12.87;100.00;99684.95;215528;1285;99268;-86
2023/10/22 11:52:50;;;;;;;63.00;40.90;;;;;;;12.85;100.00;99687.48;217408;1285;140051;-85
2023/10/22 11:57:50;;;;;;;55.50;36.60;;;;;;;12.84;100.00;99694.77;214959;1288;139309;-85
2023/10/22 12:02:51;;;;;;;59.40;38.40;;;;;;;12.82;100.00;99694.71;214200;1285;140139;-85
2023/10/22 12:07:51;;;;;;;59.80;38.50;;;;;;;12.82;100.00;99700.30;214771;1285;139467;-85
2023/10/22 12:12:52;;;;;;;55.20;37.20;;;;;;;12.82;100.00;99702.98;214138;1288;139988;-85
2023/10/22 12:17:53;;;;;;;56.60;37.50;;;;;;;12.83;100.00;99709.84;214993;1285;97960;-86
2023/10/22 12:22:54;;;;;;;56.50;36.20;;;;;;;12.84;100.00;99717.17;214377;1285;140154;-85
2023/10/22 12:27:54;;;;;;;55.10;36.90;;;;;;;12.85;100.00;99721.18;214870;1285;139414;-86
2023/10/22 12:32:55;;;;;;;51.40;34.00;;;;;;;12.85;100.00;99725.21;214358;1285;139992;-87
2023/10/22 12:37:55;;;;;;;42.70;29.80;;;;;;;12.83;100.00;99729.16;214995;1286;139953;-87
2023/10/22 12:42:56;;;;;;;46.70;31.50;;;;;;;12.81;100.00;99728.80;214450;1288;139511;-87
2023/10/22 12:47:57;;;;;;;46.90;31.40;;;;;;;12.82;100.00;99735.57;214962;1288;97976;-86
2023/10/22 12:52:57;;;;;;;44.00;27.20;;;;;;;12.82;100.00;99739.91;214254;1282;140022;-86
2023/10/22 12:57:58;;;;;;;39.30;25.80;;;;;;;12.80;100.00;99740.64;214938;1288;139632;-87
2023/10/22 13:02:59;;;;;;;35.90;23.10;;;;;;;12.76;100.00;99749.20;214300;1285;139844;-87
2023/10/22 13:07:59;;;;;;;35.40;23.00;;;;;;;12.73;100.00;99750.95;214966;1284;139064;-87
2023/10/22 13:13:03;;;;;;;32.80;22.00;;;;;;;12.71;100.00;99758.38;214574;1284;139970;-87
2023/10/22 13:18:04;;;;;;;30.80;20.60;;;;;;;12.71;100.00;99766.02;215395;1284;112069;-86
2023/10/22 13:23:05;;;;;;;28.40;18.90;;;;;;;12.70;100.00;99769.29;214464;1285;140733;-87
2023/10/22 13:28:06;;;;;;;26.70;17.00;;;;;;;12.68;100.00;99771.34;215034;1288;141804;-86
2023/10/22 13:33:07;;;;;;;25.60;14.90;;;;;;;12.66;100.00;99772.00;214276;1288;140207;-87
2023/10/22 13:38:07;;;;;;;24.80;15.20;;;;;;;12.63;100.00;99778.88;214701;1288;139581;-87
2023/10/22 13:43:08;;;;;;;23.00;14.90;;;;;;;12.62;100.00;99784.48;214388;1284;140380;-87
2023/10/22 13:48:08;;;;;;;27.10;15.70;;;;;;;12.62;100.00;99789.70;215034;1285;98456;-87
2023/10/22 13:53:09;;;;;;;22.80;13.70;;;;;;;12.64;100.00;99795.38;214540;1285;140432;-86
2023/10/22 13:58:09;;;;;;;19.60;12.30;;;;;;;12.63;100.00;99796.30;215324;1285;139221;-86
2023/10/22 14:03:10;;;;;;;18.20;12.00;;;;;;;12.64;100.00;99797.41;214591;1288;142405;-86
2023/10/22 14:08:12;;;;;;;20.40;13.90;;;;;;;12.64;100.00;99800.71;215126;1285;139594;-87
2023/10/22 14:13:14;;;;;;;18.90;12.30;;;;;;;12.62;100.00;99806.41;214295;1284;142337;-86
2023/10/22 14:18:15;;;;;;;18.50;11.70;;;;;;;12.61;100.00;99816.05;215058;1285;99179;-86
2023/10/22 14:23:16;;;;;;;17.60;10.40;;;;;;;12.60;100.00;99814.95;214282;1288;140625;-86
2023/10/22 14:28:17;;;;;;;18.20;10.90;;;;;;;12.60;100.00;99817.08;214909;1286;139526;-87
2023/10/22 14:33:17;;;;;;;20.60;11.90;;;;;;;12.57;100.00;99821.05;214408;1288;140588;-87
2023/10/22 14:38:18;;;;;;;19.60;11.80;;;;;;;12.53;100.00;99821.85;214960;1286;139210;-86
2023/10/22 14:43:18;;;;;;;19.10;10.00;;;;;;;12.51;100.00;99823.84;214711;1285;140017;-87
2023/10/22 14:48:19;;;;;;;18.60;11.20;;;;;;;12.47;100.00;99831.58;214811;1288;139629;-87
2023/10/22 14:53:20;;;;;;;18.20;11.30;;;;;;;12.46;100.00;99838.77;214887;1289;140249;-87
2023/10/22 14:58:20;;;;;;;20.00;12.30;;;;;;;12.46;100.00;99845.16;215192;1288;140788;-85
2023/10/22 15:03:21;;;;;;;17.80;11.30;;;;;;;12.46;100.00;99854.46;214323;1285;142322;-86
2023/10/22 15:08:22;;;;;;;20.30;12.70;;;;;;;12.46;100.00;99862.27;214838;1288;140058;-86
2023/10/22 15:13:22;;;;;;;24.10;14.40;;;;;;;12.44;100.00;99866.06;214376;1285;140490;-86
2023/10/22 15:18:25;;;;;;;21.10;14.30;;;;;;;12.43;100.00;99875.95;214757;1286;139792;-87
2023/10/22 15:23:28;;;;;;;28.00;17.40;;;;;;;12.42;100.00;99877.04;214636;1286;140347;-87
2023/10/22 15:28:29;;;;;;;28.10;18.90;;;;;;;12.41;100.00;99874.53;215005;1288;139367;-87
2023/10/22 15:33:29;;;;;;;33.30;21.90;;;;;;;12.39;100.00;99873.75;214343;1286;140193;-88
2023/10/22 15:38:30;;;;;;;33.60;22.10;;;;;;;12.36;100.00;99874.61;214828;1285;139036;-88
2023/10/22 15:43:31;;;;;;;26.50;19.50;;;;;;;12.35;100.00;99878.96;214510;1288;140559;-87
2023/10/22 15:48:32;;;;;;;27.00;17.80;;;;;;;12.33;100.00;99883.95;215072;1285;139234;-87
2023/10/22 15:53:35;;;;;;;37.00;24.90;;;;;;;12.32;100.00;99911.38;214500;1285;141361;-86
2023/10/22 15:58:35;;;;;;;33.40;21.70;;;;;;;12.32;100.00;99929.05;215056;1285;139337;-86
2023/10/22 16:03:37;;;;;;;40.50;27.40;;;;;;;12.26;100.00;99920.70;214400;1288;140456;-86
2023/10/22 16:08:38;;;;;;;32.70;22.20;;;;;;;12.16;100.00;99915.77;214746;1287;139668;-86
2023/10/22 16:13:38;;;;;;;30.90;20.60;;;;;;;12.15;100.00;99924.21;214587;1286;140184;-87
2023/10/22 16:18:39;;;;;;;31.60;19.40;;;;;;;12.14;100.00;99923.20;214845;1286;139107;-87
2023/10/22 16:23:39;;;;;;;33.10;21.00;;;;;;;12.13;100.00;99940.94;214688;1288;142043;-86
2023/10/22 16:28:40;;;;;;;29.50;18.90;;;;;;;12.09;100.00;99962.77;215119;1291;139860;-86
2023/10/22 16:33:40;;;;;;;76.40;47.80;;;;;;;12.05;100.00;99959.08;214660;1286;141221;-87
2023/10/22 16:38:41;;;;;;;27.90;19.10;;;;;;;12.04;100.00;99973.98;215092;1285;139011;-86
2023/10/22 16:43:41;;;;;;;27.80;17.20;;;;;;;12.01;100.00;99976.91;214537;1288;140539;-86
2023/10/22 16:48:42;;;;;;;28.20;17.00;;;;;;;11.99;100.00;99979.83;214823;1286;139969;-87
2023/10/22 16:53:42;;;;;;;23.00;14.80;;;;;;;11.94;100.00;99982.82;214489;1286;140130;-87
2023/10/22 16:58:45;;;;;;;23.00;15.30;;;;;;;11.93;100.00;99987.08;215158;1286;141216;-87
2023/10/22 17:03:46;;;;;;;22.00;12.80;;;;;;;11.92;100.00;99988.98;214317;1284;140739;-85
2023/10/22 17:08:49;;;;;;;21.10;13.90;;;;;;;11.88;100.00;99993.23;215087;1288;139848;-85
2023/10/22 17:13:49;;;;;;;22.30;14.30;;;;;;;11.86;100.00;99996.14;214581;1286;140248;-84
2023/10/22 17:18:50;;;;;;;20.60;14.00;;;;;;;11.84;100.00;99997.34;215217;1289;141194;-85
2023/10/22 17:23:50;;;;;;;24.00;15.20;;;;;;;11.83;100.00;99997.25;214463;1288;140126;-86
2023/10/22 17:28:51;;;;;;;33.00;16.50;;;;;;;11.81;100.00;99992.61;214911;1284;140895;-86
2023/10/22 17:33:52;;;;;;;27.20;15.40;;;;;;;11.78;100.00;99999.15;214660;1288;140450;-85
2023/10/22 17:38:52;;;;;;;22.90;15.70;;;;;;;11.75;100.00;100003.80;215331;1287;140325;-85
2023/10/22 17:43:53;;;;;;;34.90;21.80;;;;;;;11.69;100.00;99999.86;214858;1285;140792;-86
2023/10/22 17:48:53;;;;;;;44.20;28.60;;;;;;;11.64;100.00;100002.77;215331;1286;139035;-86
2023/10/22 17:53:53;;;;;;;32.20;21.70;;;;;;;11.59;100.00;100007.65;214892;1285;140710;-86
2023/10/22 17:58:54;;;;;;;40.10;26.40;;;;;;;11.52;100.00;100010.30;215098;1288;139390;-86
2023/10/22 18:03:54;;;;;;;33.40;22.80;;;;;;;11.46;100.00;100015.17;214540;1286;140471;-87
2023/10/22 18:08:55;;;;;;;30.50;20.50;;;;;;;11.42;100.00;100025.02;215077;1287;140065;-86
2023/10/22 18:13:59;;;;;;;30.90;20.00;;;;;;;11.35;100.00;100028.39;214523;1286;140512;-86
2023/10/22 18:18:59;;;;;;;25.30;18.30;;;;;;;11.28;100.00;100033.27;215136;1289;139233;-87
2023/10/22 18:24:00;;;;;;;27.90;19.20;;;;;;;11.20;100.00;100032.30;214825;1289;140093;-87
2023/10/22 18:29:00;;;;;;;26.30;18.50;;;;;;;11.11;100.00;100039.76;214847;1289;139025;-87
2023/10/22 18:34:01;;;;;;;28.60;18.70;;;;;;;11.03;100.00;100044.52;214454;1288;140249;-87
2023/10/22 18:39:04;;;;;;;28.30;17.90;;;;;;;10.93;100.00;100056.68;215032;1285;139361;-88
2023/10/22 18:44:06;;;;;;;36.20;22.00;;;;;;;10.85;100.00;100064.85;214313;1287;140411;-87
2023/10/22 18:49:07;;;;;;;28.80;19.10;;;;;;;10.82;100.00;100068.28;214470;1286;376123;-85
2023/10/22 18:54:09;;;;;;;39.60;26.40;;;;;;;10.77;100.00;100072.75;215051;1286;139062;-86
2023/10/22 18:59:10;;;;;;;35.60;21.80;;;;;;;10.75;100.00;100077.70;214297;1285;141740;-86
2023/10/22 19:04:11;;;;;;;36.40;23.70;;;;;;;10.70;100.00;100082.70;215037;1288;139598;-86
2023/10/22 19:09:11;;;;;;;31.60;22.70;;;;;;;10.63;100.00;100086.29;214459;1289;140700;-85
2023/10/22 19:14:17;;;;;;;47.80;28.20;;;;;;;10.58;100.00;100090.20;215116;1288;139632;-86
2023/10/22 19:19:17;;;;;;;58.80;31.50;;;;;;;10.57;100.00;100096.64;214572;1286;141053;-85
2023/10/22 19:24:18;;;;;;;53.30;31.30;;;;;;;10.59;100.00;100102.55;214823;1286;139337;-85
2023/10/22 19:29:19;;;;;;;54.50;31.00;;;;;;;10.62;100.00;100105.46;214708;1286;141621;-84
2023/10/22 19:34:19;;;;;;;47.30;28.80;;;;;;;10.64;100.00;100109.65;215134;1284;139187;-84
2023/10/22 19:39:19;;;;;;;49.30;28.90;;;;;;;10.65;100.00;100115.79;214754;1289;141269;-84
2023/10/22 19:44:20;;;;;;;52.60;28.20;;;;;;;10.67;100.00;100113.75;215282;1289;139148;-85
2023/10/22 19:49:20;;;;;;;46.90;26.20;;;;;;;10.67;100.00;100119.89;214449;1286;140527;-85
2023/10/22 19:54:23;;;;;;;48.40;25.00;;;;;;;10.67;100.00;100123.98;215077;1289;139424;-86
2023/10/22 19:59:24;;;;;;;42.30;22.50;;;;;;;10.70;100.00;100127.38;214618;1288;140710;-85
2023/10/22 20:04:25;;;;;;;46.30;24.20;;;;;;;10.74;100.00;100126.52;214888;1285;140346;-83
2023/10/22 20:09:26;;;;;;;52.50;24.60;;;;;;;10.77;100.00;100126.46;214509;1289;140898;-84
2023/10/22 20:14:26;;;;;;;55.80;25.40;;;;;;;10.82;100.00;100131.06;214965;1286;139290;-85
2023/10/22 20:19:27;;;;;;;59.60;28.00;;;;;;;10.87;100.00;100131.32;214348;1285;141369;-85
2023/10/22 20:24:28;;;;;;;52.10;24.90;;;;;;;10.89;100.00;100136.29;215052;1286;139876;-85
2023/10/22 20:29:29;;;;;;;62.30;28.40;;;;;;;10.93;100.00;100137.88;214678;1288;140457;-85
2023/10/22 20:34:30;;;;;;;53.60;25.00;;;;;;;10.96;100.00;100139.06;215091;1286;139374;-85
2023/10/22 20:39:31;;;;;;;58.20;26.20;;;;;;;10.98;100.00;100147.89;214621;1284;140294;-85
2023/10/22 20:44:31;;;;;;;51.00;24.70;;;;;;;11.02;100.00;100156.72;214828;1285;139503;-86
2023/10/22 20:49:32;;;;;;;53.80;23.60;;;;;;;11.05;100.00;100156.20;214439;1286;141304;-85
2023/10/22 20:54:33;;;;;;;52.60;23.00;;;;;;;11.08;100.00;100156.77;215016;1288;139433;-84
2023/10/22 20:59:33;;;;;;;46.00;20.50;;;;;;;11.08;100.00;100162.89;214555;1285;141483;-83
2023/10/22 21:04:35;;;;;;;37.60;19.10;;;;;;;11.03;100.00;100163.89;214990;1285;140283;-84
2023/10/22 21:09:36;;;;;;;33.20;19.30;;;;;;;10.98;100.00;100165.43;214359;1288;140427;-83
2023/10/22 21:14:36;;;;;;;37.60;18.10;;;;;;;10.91;100.00;100159.58;215238;1285;139957;-84
2023/10/22 21:19:37;;;;;;;34.80;19.40;;;;;;;10.81;100.00;100158.02;214153;1285;140172;-83
2023/10/22 21:24:38;;;;;;;30.10;17.60;;;;;;;10.72;100.00;100167.25;215062;1288;139497;-84
2023/10/22 21:29:41;;;;;;;32.10;15.20;;;;;;;10.63;100.00;100160.67;214559;1284;141219;-84
2023/10/22 21:34:42;;;;;;;33.40;16.40;;;;;;;10.51;100.00;100160.27;215054;1288;139957;-84
2023/10/22 21:39:42;;;;;;;31.60;18.40;;;;;;;10.39;100.00;100163.41;214586;1285;141465;-84
2023/10/22 21:44:46;;;;;;;26.90;14.90;;;;;;;10.28;100.00;100165.36;215168;1285;139360;-84
2023/10/22 21:49:47;;;;;;;26.20;14.60;;;;;;;10.15;100.00;100166.05;214649;1284;140857;-85
2023/10/22 21:54:48;;;;;;;24.00;14.00;;;;;;;10.02;100.00;100168.65;214987;1288;140329;-85
2023/10/22 21:59:48;;;;;;;27.70;14.30;;;;;;;9.91;100.00;100176.88;214767;1284;139985;-85
2023/10/22 22:04:49;;;;;;;27.70;16.00;;;;;;;9.79;100.00;100187.90;215333;1285;139432;-85
2023/10/22 22:09:49;;;;;;;35.30;17.90;;;;;;;9.69;100.00;100190.77;214911;1285;140222;-85
2023/10/22 22:14:50;;;;;;;32.00;16.60;;;;;;;9.56;100.00;100201.16;215350;1288;139993;-85